createdAt,value
2022-08-20T00:00:15.877Z,95425.69
2022-08-20T00:02:46.964Z,95415.09
2022-08-20T00:05:15.648Z,95415.03
2022-08-20T00:07:42.339Z,95411.19
2022-08-20T00:10:09.784Z,95402.56
2022-08-20T00:12:37.593Z,95414.41
2022-08-20T00:15:06.501Z,95414.09
2022-08-20T00:17:33.145Z,95408.53
2022-08-20T00:19:59.784Z,95413.06
2022-08-20T00:22:26.580Z,95411.19
2022-08-20T00:24:53.218Z,95409.84
2022-08-20T00:27:19.829Z,95409.53
2022-08-20T00:29:46.477Z,95406.34
2022-08-20T00:32:13.293Z,95409.88
2022-08-20T00:34:39.936Z,95403.56
2022-08-20T00:37:06.624Z,95404.50
2022-08-20T00:39:33.291Z,95402.22
2022-08-20T00:42:00.199Z,95400.63
2022-08-20T00:44:27.106Z,95404.78
2022-08-20T00:46:54.335Z,95398.03
2022-08-20T00:49:28.568Z,95399.41
2022-08-20T00:52:03.409Z,95403.19
2022-08-20T00:54:38.092Z,95403.75
2022-08-20T00:57:09.815Z,95404.38
2022-08-20T00:59:41.443Z,95408.06
2022-08-20T01:02:15.525Z,95401.88
2022-08-20T01:04:42.645Z,95394.47
2022-08-20T01:07:09.285Z,95400.22
2022-08-20T01:09:58.194Z,95398.78
2022-08-20T01:12:25.479Z,95392.69
2022-08-20T01:14:52.912Z,95399.44
2022-08-20T01:17:24.303Z,95390.00
2022-08-20T01:20:24.774Z,95393.88
2022-08-20T01:23:22.084Z,95386.38
2022-08-20T01:26:10.381Z,95394.38
2022-08-20T01:29:00.986Z,95390.88
2022-08-20T01:31:32.767Z,95387.91
2022-08-20T01:34:01.980Z,95387.53
2022-08-20T01:36:34.080Z,95398.75
2022-08-20T01:39:01.078Z,95402.44
2022-08-20T01:41:45.880Z,95400.22
2022-08-20T01:44:16.990Z,95393.53
2022-08-20T01:46:48.663Z,95401.22
2022-08-20T01:49:35.344Z,95402.06
2022-08-20T01:52:07.518Z,95403.09
2022-08-20T01:54:35.363Z,95392.22
2022-08-20T01:57:17.013Z,95392.34
2022-08-20T01:59:45.097Z,95396.91
2022-08-20T02:02:13.035Z,95393.00
2022-08-20T02:04:41.164Z,95389.00
2022-08-20T02:07:14.677Z,95387.09
2022-08-20T02:09:41.580Z,95390.47
2022-08-20T02:12:10.576Z,95378.69
2022-08-20T02:14:46.661Z,95387.97
2022-08-20T02:17:14.915Z,95382.88
2022-08-20T02:19:46.362Z,95373.09
2022-08-20T02:22:18.636Z,95377.56
2022-08-20T02:24:45.397Z,95378.06
2022-08-20T02:27:13.540Z,95372.63
2022-08-20T02:29:41.056Z,95373.97
2022-08-20T02:32:28.358Z,95371.63
2022-08-20T02:34:54.931Z,95375.91
2022-08-20T02:37:21.574Z,95381.13
2022-08-20T02:39:48.341Z,95383.16
2022-08-20T02:42:14.995Z,95376.00
2022-08-20T02:44:41.681Z,95372.06
2022-08-20T02:47:08.385Z,95368.00
2022-08-20T02:49:35.148Z,95368.91
2022-08-20T02:52:01.827Z,95369.09
2022-08-20T02:54:28.499Z,95362.31
2022-08-20T02:56:55.164Z,95360.09
2022-08-20T02:59:21.796Z,95362.91
2022-08-20T03:01:59.172Z,95355.28
2022-08-20T03:04:30.090Z,95360.59
2022-08-20T03:06:57.705Z,95367.84
2022-08-20T03:09:24.629Z,95353.72
2022-08-20T03:11:51.398Z,95369.41
2022-08-20T03:14:18.199Z,95372.38
2022-08-20T03:16:44.837Z,95379.38
2022-08-20T03:19:11.482Z,95380.94
2022-08-20T03:21:38.259Z,95387.38
2022-08-20T03:24:05.408Z,95381.69
2022-08-20T03:26:34.820Z,95386.78
2022-08-20T03:29:02.310Z,95381.69
2022-08-20T03:31:28.954Z,95384.09
2022-08-20T03:33:55.784Z,95377.69
2022-08-20T03:36:28.023Z,95378.44
2022-08-20T03:39:01.558Z,95386.50
2022-08-20T03:41:28.509Z,95379.75
2022-08-20T03:43:55.151Z,95380.50
2022-08-20T03:46:23.550Z,95380.81
2022-08-20T03:49:00.236Z,95378.75
2022-08-20T03:51:43.450Z,95380.97
2022-08-20T03:54:18.768Z,95379.88
2022-08-20T03:56:45.432Z,95382.03
2022-08-20T03:59:12.095Z,95383.84
2022-08-20T04:01:46.143Z,95377.66
2022-08-20T04:04:14.300Z,95382.78
2022-08-20T04:06:42.511Z,95377.47
2022-08-20T04:09:12.073Z,95377.22
2022-08-20T04:11:40.831Z,95372.94
2022-08-20T04:14:27.512Z,95379.84
2022-08-20T04:16:56.091Z,95382.25
2022-08-20T04:19:22.781Z,95387.25
2022-08-20T04:21:49.408Z,95376.13
2022-08-20T04:24:22.496Z,95380.06
2022-08-20T04:26:59.860Z,95379.19
2022-08-20T04:29:26.634Z,95386.44
2022-08-20T04:32:00.459Z,95380.75
2022-08-20T04:34:27.185Z,95383.19
2022-08-20T04:36:54.081Z,95387.41
2022-08-20T04:39:20.819Z,95387.50
2022-08-20T04:41:47.792Z,95384.53
2022-08-20T04:44:14.436Z,95389.41
2022-08-20T04:46:43.752Z,95392.03
2022-08-20T04:49:11.472Z,95390.94
2022-08-20T04:51:38.195Z,95388.34
2022-08-20T04:54:04.958Z,95386.50
2022-08-20T04:56:34.999Z,95390.25
2022-08-20T04:59:01.923Z,95391.50
2022-08-20T05:01:29.166Z,95397.03
2022-08-20T05:03:59.090Z,95404.75
2022-08-20T05:06:29.934Z,95404.25
2022-08-20T05:08:58.700Z,95412.88
2022-08-20T05:11:34.940Z,95410.84
2022-08-20T05:14:05.324Z,95416.94
2022-08-20T05:16:32.114Z,95416.16
2022-08-20T05:18:58.766Z,95414.25
2022-08-20T05:21:25.472Z,95422.88
2022-08-20T05:23:52.130Z,95419.50
2022-08-20T05:26:18.749Z,95418.03
2022-08-20T05:28:50.656Z,95431.66
2022-08-20T05:31:24.196Z,95432.66
2022-08-20T05:34:07.382Z,95432.25
2022-08-20T05:36:34.010Z,95434.84
2022-08-20T05:39:00.626Z,95433.44
2022-08-20T05:41:29.399Z,95444.72
2022-08-20T05:44:00.269Z,95444.13
2022-08-20T05:46:27.697Z,95437.59
2022-08-20T05:48:54.335Z,95437.94
2022-08-20T05:51:20.965Z,95443.91
2022-08-20T05:53:47.848Z,95438.97
2022-08-20T05:56:14.503Z,95445.09
2022-08-20T05:58:41.107Z,95450.81
2022-08-20T06:01:07.832Z,95447.66
2022-08-20T06:03:34.652Z,95446.00
2022-08-20T06:06:02.801Z,95454.06
2022-08-20T06:08:30.080Z,95451.13
2022-08-20T06:10:57.038Z,95446.03
2022-08-20T06:13:23.776Z,95445.78
2022-08-20T06:15:50.506Z,95440.53
2022-08-20T06:18:28.472Z,95446.59
2022-08-20T06:20:55.648Z,95447.16
2022-08-20T06:23:22.320Z,95451.44
2022-08-20T06:25:48.996Z,95436.28
2022-08-20T06:28:15.838Z,95445.84
2022-08-20T06:30:42.644Z,95439.28
2022-08-20T06:33:09.319Z,95451.59
2022-08-20T06:35:36.269Z,95445.59
2022-08-20T06:38:03.378Z,95444.94
2022-08-20T06:40:30.056Z,95448.78
2022-08-20T06:42:57.770Z,95446.03
2022-08-20T06:45:30.609Z,95452.41
2022-08-20T06:48:00.545Z,95451.59
2022-08-20T06:50:33.731Z,95460.19
2022-08-20T06:53:00.607Z,95470.34
2022-08-20T06:55:27.671Z,95472.56
2022-08-20T06:57:58.920Z,95464.66
2022-08-20T07:00:26.852Z,95482.69
2022-08-20T07:02:53.593Z,95468.63
2022-08-20T07:05:20.414Z,95468.16
2022-08-20T07:07:48.690Z,95466.53
2022-08-20T07:10:17.716Z,95462.44
2022-08-20T07:12:44.848Z,95466.59
2022-08-20T07:15:13.050Z,95462.66
2022-08-20T07:17:40.603Z,95471.16
2022-08-20T07:20:11.746Z,95470.50
2022-08-20T07:22:42.072Z,95467.03
2022-08-20T07:25:11.538Z,95470.31
2022-08-20T07:27:39.165Z,95464.09
2022-08-20T07:30:12.909Z,95473.59
2022-08-20T07:32:45.281Z,95472.28
2022-08-20T07:35:15.335Z,95471.44
2022-08-20T07:37:45.349Z,95476.06
2022-08-20T07:40:15.820Z,95473.56
2022-08-20T07:42:42.553Z,95471.81
2022-08-20T07:45:12.029Z,95472.22
2022-08-20T07:47:40.512Z,95474.75
2022-08-20T07:50:11.580Z,95481.22
2022-08-20T07:52:38.254Z,95480.63
2022-08-20T07:55:07.360Z,95476.34
2022-08-20T07:57:34.277Z,95479.50
2022-08-20T08:00:01.246Z,95477.56
2022-08-20T08:02:28.165Z,95477.56
2022-08-20T08:04:55.609Z,95482.13
2022-08-20T08:07:24.045Z,95485.75
2022-08-20T08:09:50.973Z,95487.94
2022-08-20T08:12:18.248Z,95488.34
2022-08-20T08:14:48.008Z,95488.94
2022-08-20T08:17:19.183Z,95495.34
2022-08-20T08:19:49.937Z,95495.59
2022-08-20T08:22:19.282Z,95498.44
2022-08-20T08:24:56.917Z,95499.00
2022-08-20T08:27:24.258Z,95498.16
2022-08-20T08:29:50.955Z,95503.22
2022-08-20T08:32:20.087Z,95497.44
2022-08-20T08:34:46.832Z,95497.19
2022-08-20T08:37:13.474Z,95496.44
2022-08-20T08:39:40.210Z,95503.63
2022-08-20T08:42:29.363Z,95502.63
2022-08-20T08:44:59.094Z,95502.66
2022-08-20T08:47:34.680Z,95502.69
2022-08-20T08:50:04.190Z,95503.56
2022-08-20T08:52:35.267Z,95500.81
2022-08-20T08:55:06.541Z,95504.38
2022-08-20T08:57:33.238Z,95508.53
2022-08-20T09:00:05.382Z,95515.75
2022-08-20T09:02:34.973Z,95516.56
2022-08-20T09:05:07.093Z,95517.72
2022-08-20T09:07:34.339Z,95519.91
2022-08-20T09:10:02.047Z,95518.75
2022-08-20T09:12:28.724Z,95517.97
2022-08-20T09:14:55.774Z,95513.06
2022-08-20T09:17:23.459Z,95521.38
2022-08-20T09:19:50.659Z,95522.03
2022-08-20T09:22:22.743Z,95510.38
2022-08-20T09:24:49.665Z,95513.06
2022-08-20T09:27:16.370Z,95513.03
2022-08-20T09:29:44.016Z,95516.78
2022-08-20T09:32:16.521Z,95512.66
2022-08-20T09:34:46.981Z,95524.38
2022-08-20T09:37:15.257Z,95523.03
2022-08-20T09:39:42.271Z,95520.00
2022-08-20T09:42:12.633Z,95523.78
2022-08-20T09:44:40.560Z,95517.66
2022-08-20T09:47:07.352Z,95514.63
2022-08-20T09:49:34.059Z,95512.50
2022-08-20T09:52:01.807Z,95510.31
2022-08-20T09:54:29.138Z,95510.06
2022-08-20T09:57:08.067Z,95509.19
2022-08-20T09:59:36.899Z,95506.34
2022-08-20T10:02:04.175Z,95514.34
2022-08-20T10:04:31.117Z,95510.91
2022-08-20T10:06:57.751Z,95506.88
2022-08-20T10:09:24.415Z,95503.97
2022-08-20T10:11:51.084Z,95506.50
2022-08-20T10:14:17.752Z,95500.59
2022-08-20T10:16:44.462Z,95504.59
2022-08-20T10:19:11.078Z,95505.69
2022-08-20T10:21:39.061Z,95499.69
2022-08-20T10:24:06.301Z,95502.81
2022-08-20T10:26:33.005Z,95503.22
2022-08-20T10:28:59.838Z,95497.66
2022-08-20T10:31:26.490Z,95494.44
2022-08-20T10:33:53.166Z,95488.09
2022-08-20T10:36:20.020Z,95488.66
2022-08-20T10:38:46.881Z,95483.72
2022-08-20T10:41:13.641Z,95475.63
2022-08-20T10:43:40.330Z,95484.16
2022-08-20T10:46:07.064Z,95489.97
2022-08-20T10:48:33.895Z,95482.81
2022-08-20T10:51:00.631Z,95485.47
2022-08-20T10:53:27.369Z,95481.88
2022-08-20T10:55:55.157Z,95474.38
2022-08-20T10:58:23.119Z,95474.22
2022-08-20T11:00:51.992Z,95468.28
2022-08-20T11:03:21.602Z,95470.00
2022-08-20T11:05:48.522Z,95467.31
2022-08-20T11:08:15.319Z,95468.06
2022-08-20T11:11:01.170Z,95465.84
2022-08-20T11:13:28.018Z,95464.63
2022-08-20T11:15:54.979Z,95460.09
2022-08-20T11:18:21.818Z,95463.09
2022-08-20T11:20:48.492Z,95462.72
2022-08-20T11:23:15.096Z,95460.44
2022-08-20T11:25:54.388Z,95454.06
2022-08-20T11:28:31.684Z,95455.28
2022-08-20T11:31:00.629Z,95455.41
2022-08-20T11:33:27.571Z,95448.53
2022-08-20T11:35:54.220Z,95452.47
2022-08-20T11:38:20.882Z,95459.03
2022-08-20T11:40:47.621Z,95452.53
2022-08-20T11:43:18.185Z,95449.47
2022-08-20T11:45:49.528Z,95441.47
2022-08-20T11:48:16.446Z,95448.88
2022-08-20T11:50:43.164Z,95447.84
2022-08-20T11:53:09.818Z,95450.25
2022-08-20T11:55:37.295Z,95445.09
2022-08-20T11:58:09.386Z,95442.66
2022-08-20T12:00:36.295Z,95455.66
2022-08-20T12:03:09.130Z,95463.34
2022-08-20T12:05:38.479Z,95457.97
2022-08-20T12:08:06.186Z,95458.63
2022-08-20T12:10:33.070Z,95452.53
2022-08-20T12:13:00.021Z,95453.78
2022-08-20T12:15:36.836Z,95449.38
2022-08-20T12:18:12.615Z,95449.31
2022-08-20T12:20:39.452Z,95451.38
2022-08-20T12:23:06.169Z,95445.22
2022-08-20T12:25:33.691Z,95448.44
2022-08-20T12:28:00.624Z,95444.50
2022-08-20T12:30:27.421Z,95444.75
2022-08-20T12:32:54.052Z,95446.56
2022-08-20T12:35:21.049Z,95449.13
2022-08-20T12:37:49.552Z,95452.25
2022-08-20T12:40:21.579Z,95440.84
2022-08-20T12:43:04.051Z,95437.41
2022-08-20T12:45:37.948Z,95443.75
2022-08-20T12:48:13.551Z,95438.44
2022-08-20T12:50:43.122Z,95445.38
2022-08-20T12:53:10.033Z,95450.75
2022-08-20T12:55:39.160Z,95444.63
2022-08-20T12:58:12.257Z,95447.03
2022-08-20T13:00:43.197Z,95452.66
2022-08-20T13:03:12.508Z,95443.25
2022-08-20T13:05:40.775Z,95445.81
2022-08-20T13:08:12.592Z,95439.44
2022-08-20T13:10:43.387Z,95435.56
2022-08-20T13:13:11.792Z,95434.28
2022-08-20T13:15:38.908Z,95440.28
2022-08-20T13:18:06.366Z,95445.84
2022-08-20T13:20:34.509Z,95442.16
2022-08-20T13:23:04.132Z,95440.06
2022-08-20T13:25:31.262Z,95434.25
2022-08-20T13:28:00.114Z,95424.50
2022-08-20T13:30:27.185Z,95424.44
2022-08-20T13:32:54.144Z,95420.38
2022-08-20T13:35:21.689Z,95422.50
2022-08-20T13:37:50.321Z,95418.94
2022-08-20T13:40:18.070Z,95415.47
2022-08-20T13:42:45.050Z,95425.66
2022-08-20T13:45:12.028Z,95422.56
2022-08-20T13:47:41.439Z,95417.72
2022-08-20T13:50:12.737Z,95412.81
2022-08-20T13:52:40.046Z,95416.13
2022-08-20T13:55:12.254Z,95408.72
2022-08-20T13:57:39.815Z,95408.75
2022-08-20T14:00:09.817Z,95409.72
2022-08-20T14:02:36.473Z,95407.75
2022-08-20T14:05:03.903Z,95414.25
2022-08-20T14:07:32.760Z,95410.25
2022-08-20T14:10:12.962Z,95415.50
2022-08-20T14:12:39.613Z,95415.84
2022-08-20T14:15:07.619Z,95418.53
2022-08-20T14:17:38.189Z,95425.88
2022-08-20T14:20:12.337Z,95413.44
2022-08-20T14:22:39.494Z,95406.63
2022-08-20T14:25:08.754Z,95408.91
2022-08-20T14:27:35.901Z,95408.28
2022-08-20T14:30:11.382Z,95405.94
2022-08-20T14:32:38.441Z,95409.50
2022-08-20T14:35:05.828Z,95406.56
2022-08-20T14:37:36.971Z,95404.09
2022-08-20T14:40:08.268Z,95411.41
2022-08-20T14:42:35.067Z,95413.44
2022-08-20T14:45:01.907Z,95420.66
2022-08-20T14:47:34.594Z,95412.91
2022-08-20T14:50:05.820Z,95411.31
2022-08-20T14:52:33.178Z,95404.97
2022-08-20T14:55:08.986Z,95412.97
2022-08-20T14:57:36.012Z,95415.34
2022-08-20T15:00:03.767Z,95409.03
2022-08-20T15:02:30.511Z,95407.25
2022-08-20T15:04:57.527Z,95412.13
2022-08-20T15:07:27.709Z,95407.16
2022-08-20T15:09:55.917Z,95406.25
2022-08-20T15:12:24.427Z,95402.19
2022-08-20T15:14:51.434Z,95399.50
2022-08-20T15:17:24.142Z,95395.94
2022-08-20T15:19:52.363Z,95389.03
2022-08-20T15:22:23.365Z,95393.06
2022-08-20T15:24:50.402Z,95384.66
2022-08-20T15:27:25.272Z,95387.44
2022-08-20T15:29:53.360Z,95379.44
2022-08-20T15:32:21.312Z,95371.44
2022-08-20T15:34:48.925Z,95358.47
2022-08-20T15:37:19.926Z,95367.53
2022-08-20T15:39:48.063Z,95358.63
2022-08-20T15:42:15.006Z,95352.13
2022-08-20T15:44:43.220Z,95357.50
2022-08-20T15:47:24.893Z,95353.28
2022-08-20T15:49:59.756Z,95359.41
2022-08-20T15:52:34.829Z,95355.81
2022-08-20T15:55:02.761Z,95355.53
2022-08-20T15:57:57.245Z,95342.56
2022-08-20T16:00:33.822Z,95348.91
2022-08-20T16:03:19.185Z,95351.69
2022-08-20T16:05:56.200Z,95357.22
2022-08-20T16:08:43.535Z,95353.69
2022-08-20T16:11:47.081Z,95355.00
2022-08-20T16:14:18.935Z,95361.44
2022-08-20T16:16:49.664Z,95364.00
2022-08-20T16:19:28.737Z,95358.69
2022-08-20T16:21:58.184Z,95368.16
2022-08-20T16:24:25.318Z,95372.06
2022-08-20T16:27:29.830Z,95377.22
2022-08-20T16:30:01.790Z,95368.94
2022-08-20T16:32:28.409Z,95373.13
2022-08-20T16:34:59.555Z,95363.13
2022-08-20T16:37:46.141Z,95365.06
2022-08-20T16:40:27.161Z,95364.91
2022-08-20T16:42:59.161Z,95363.59
2022-08-20T16:45:33.038Z,95367.94
2022-08-20T16:48:03.009Z,95367.47
2022-08-20T16:50:38.308Z,95372.16
2022-08-20T16:53:05.437Z,95359.97
2022-08-20T16:55:32.087Z,95363.59
2022-08-20T16:57:59.192Z,95366.22
2022-08-20T17:00:32.951Z,95362.84
2022-08-20T17:03:03.922Z,95359.69
2022-08-20T17:05:45.122Z,95352.19
2022-08-20T17:08:22.720Z,95357.84
2022-08-20T17:11:14.353Z,95358.47
2022-08-20T17:13:45.917Z,95357.16
2022-08-20T17:16:12.505Z,95354.22
2022-08-20T17:18:42.763Z,95358.44
2022-08-20T17:21:15.450Z,95351.47
2022-08-20T17:23:55.871Z,95345.56
2022-08-20T17:26:36.932Z,95354.34
2022-08-20T17:29:18.171Z,95351.50
2022-08-20T17:31:48.964Z,95356.81
2022-08-20T17:34:20.982Z,95350.06
2022-08-20T17:36:54.597Z,95352.81
2022-08-20T17:39:23.635Z,95353.69
2022-08-20T17:42:21.130Z,95347.09
2022-08-20T17:44:55.140Z,95350.56
2022-08-20T17:47:32.030Z,95353.50
2022-08-20T17:50:12.458Z,95347.38
2022-08-20T17:52:52.206Z,95334.97
2022-08-20T17:55:19.937Z,95345.22
2022-08-20T17:57:51.965Z,95338.44
2022-08-20T18:00:27.130Z,95342.84
2022-08-20T18:03:06.097Z,95342.53
2022-08-20T18:05:36.505Z,95343.06
2022-08-20T18:08:25.762Z,95343.88
2022-08-20T18:11:06.807Z,95341.03
2022-08-20T18:13:33.398Z,95339.84
2022-08-20T18:16:04.153Z,95337.78
2022-08-20T18:18:56.343Z,95339.47
2022-08-20T18:21:45.357Z,95340.66
2022-08-20T18:24:18.172Z,95341.38
2022-08-20T18:26:51.876Z,95350.88
2022-08-20T18:29:29.252Z,95344.34
2022-08-20T18:32:03.089Z,95343.38
2022-08-20T18:34:29.809Z,95353.78
2022-08-20T18:37:04.508Z,95345.63
2022-08-20T18:39:38.161Z,95351.41
2022-08-20T18:42:09.354Z,95347.22
2022-08-20T18:44:44.234Z,95351.50
2022-08-20T18:47:39.185Z,95340.63
2022-08-20T18:50:16.789Z,95353.88
2022-08-20T18:52:47.609Z,95350.72
2022-08-20T18:55:33.722Z,95351.53
2022-08-20T18:58:07.312Z,95351.00
2022-08-20T19:00:49.417Z,95351.47
2022-08-20T19:03:44.140Z,95356.28
2022-08-20T19:06:16.478Z,95358.56
2022-08-20T19:09:00.725Z,95353.03
2022-08-20T19:11:30.060Z,95361.28
2022-08-20T19:14:42.664Z,95363.81
2022-08-20T19:17:23.471Z,95373.53
2022-08-20T19:20:07.546Z,95369.97
2022-08-20T19:22:35.693Z,95371.72
2022-08-20T19:25:02.360Z,95367.41
2022-08-20T19:27:29.920Z,95357.50
2022-08-20T19:29:57.173Z,95363.41
2022-08-20T19:32:29.835Z,95364.28
2022-08-20T19:35:00.214Z,95360.53
2022-08-20T19:37:51.311Z,95369.13
2022-08-20T19:40:21.072Z,95363.50
2022-08-20T19:42:48.605Z,95368.56
2022-08-20T19:45:31.790Z,95368.34
2022-08-20T19:48:02.929Z,95367.00
2022-08-20T19:51:08.487Z,95374.75
2022-08-20T19:53:43.568Z,95373.38
2022-08-20T19:56:17.263Z,95373.94
2022-08-20T19:58:45.141Z,95382.22
2022-08-20T20:01:20.901Z,95375.34
2022-08-20T20:04:05.406Z,95386.03
2022-08-20T20:06:38.069Z,95373.59
2022-08-20T20:09:17.505Z,95375.72
2022-08-20T20:11:53.593Z,95372.28
2022-08-20T20:14:25.846Z,95374.31
2022-08-20T20:16:54.201Z,95379.41
2022-08-20T20:19:28.870Z,95388.16
2022-08-20T20:22:23.233Z,95373.81
2022-08-20T20:25:00.886Z,95377.66
2022-08-20T20:27:29.112Z,95379.19
2022-08-20T20:30:06.710Z,95376.69
2022-08-20T20:32:33.798Z,95381.88
2022-08-20T20:35:04.536Z,95383.03
2022-08-20T20:37:50.853Z,95382.94
2022-08-20T20:40:47.667Z,95379.47
2022-08-20T20:43:28.925Z,95376.06
2022-08-20T20:46:17.621Z,95376.59
2022-08-20T20:48:48.773Z,95379.00
2022-08-20T20:51:27.014Z,95378.72
2022-08-20T20:53:56.773Z,95371.97
2022-08-20T20:56:27.747Z,95370.00
2022-08-20T20:58:55.992Z,95372.50
2022-08-20T21:01:38.660Z,95366.09
2022-08-20T21:04:10.917Z,95368.78
2022-08-20T21:06:38.693Z,95369.22
2022-08-20T21:09:05.600Z,95361.66
2022-08-20T21:11:32.378Z,95366.94
2022-08-20T21:13:59.086Z,95370.56
2022-08-20T21:16:25.711Z,95368.28
2022-08-20T21:18:52.381Z,95371.22
2022-08-20T21:21:19.069Z,95372.41
2022-08-20T21:23:45.759Z,95368.03
2022-08-20T21:26:12.521Z,95369.38
2022-08-20T21:28:39.231Z,95373.13
2022-08-20T21:31:05.995Z,95362.41
2022-08-20T21:33:32.653Z,95368.00
2022-08-20T21:35:59.310Z,95367.91
2022-08-20T21:38:25.991Z,95370.50
2022-08-20T21:40:52.736Z,95360.63
2022-08-20T21:43:19.639Z,95365.41
2022-08-20T21:45:49.653Z,95369.66
2022-08-20T21:48:16.437Z,95370.47
2022-08-20T21:50:43.271Z,95373.56
2022-08-20T21:53:12.794Z,95373.91
2022-08-20T21:55:40.961Z,95372.94
2022-08-20T21:58:08.970Z,95367.56
2022-08-20T22:01:01.836Z,95360.75
2022-08-20T22:03:36.865Z,95375.38
2022-08-20T22:06:07.624Z,95368.53
2022-08-20T22:08:34.894Z,95375.84
2022-08-20T22:11:02.635Z,95377.47
2022-08-20T22:13:31.786Z,95369.88
2022-08-20T22:16:05.627Z,95361.78
2022-08-20T22:18:32.634Z,95373.25
2022-08-20T22:21:00.209Z,95368.00
2022-08-20T22:23:27.659Z,95378.16
2022-08-20T22:25:54.901Z,95363.53
2022-08-20T22:28:22.006Z,95373.38
2022-08-20T22:30:49.921Z,95376.66
2022-08-20T22:33:22.061Z,95378.38
2022-08-20T22:35:52.835Z,95373.97
2022-08-20T22:38:20.360Z,95360.25
2022-08-20T22:40:48.051Z,95363.91
2022-08-20T22:43:15.936Z,95360.25
2022-08-20T22:45:47.784Z,95359.22
2022-08-20T22:48:18.276Z,95356.25
2022-08-20T22:50:45.613Z,95358.09
2022-08-20T22:53:13.737Z,95344.63
2022-08-20T22:55:40.751Z,95338.47
2022-08-20T22:58:08.265Z,95348.94
2022-08-20T23:00:38.449Z,95350.81
2022-08-20T23:03:06.117Z,95345.50
2022-08-20T23:05:36.249Z,95339.91
2022-08-20T23:08:05.120Z,95341.88
2022-08-20T23:10:37.755Z,95340.53
2022-08-20T23:13:06.487Z,95334.25
2022-08-20T23:15:37.640Z,95332.72
2022-08-20T23:18:15.724Z,95336.91
2022-08-20T23:20:48.517Z,95328.41
2022-08-20T23:23:15.171Z,95327.22
2022-08-20T23:25:43.879Z,95335.28
2022-08-20T23:28:10.540Z,95327.75
2022-08-20T23:30:37.251Z,95334.31
2022-08-20T23:33:06.884Z,95332.56
2022-08-20T23:35:33.570Z,95326.13
2022-08-20T23:38:00.899Z,95325.31
2022-08-20T23:40:29.704Z,95325.06
2022-08-20T23:42:57.707Z,95319.38
2022-08-20T23:45:25.314Z,95323.97
2022-08-20T23:47:52.773Z,95321.09
2022-08-20T23:50:24.453Z,95328.00
2022-08-20T23:52:52.192Z,95322.50
2022-08-20T23:55:20.502Z,95325.03
2022-08-20T23:57:47.246Z,95322.63
